createdAt,value
2019-01-12T00:01:33.360Z,45.80
2019-01-12T00:04:07.521Z,45.10
2019-01-12T00:06:41.676Z,45.60
2019-01-12T00:09:15.857Z,45.50
2019-01-12T00:11:50.012Z,45.20
2019-01-12T00:14:24.140Z,45.70
2019-01-12T00:16:58.297Z,45.80
2019-01-12T00:19:32.423Z,44.80
2019-01-12T00:22:06.575Z,44.60
2019-01-12T00:24:40.752Z,45.70
2019-01-12T00:27:14.915Z,46.20
2019-01-12T00:29:49.077Z,46.30
2019-01-12T00:32:23.249Z,46.00
2019-01-12T00:34:57.415Z,45.30
2019-01-12T00:37:31.579Z,45.60
2019-01-12T00:40:07.880Z,46.20
2019-01-12T00:42:42.035Z,45.90
2019-01-12T00:45:16.197Z,46.20
2019-01-12T00:47:50.356Z,45.70
2019-01-12T00:50:24.516Z,45.20
2019-01-12T00:52:58.677Z,45.60
2019-01-12T00:55:32.916Z,46.10
2019-01-12T00:58:07.075Z,46.20
2019-01-12T01:00:41.207Z,46.00
2019-01-12T01:03:15.367Z,46.20
2019-01-12T01:05:49.522Z,46.70
2019-01-12T01:08:23.680Z,48.20
2019-01-12T01:10:57.841Z,47.30
2019-01-12T01:13:32.001Z,47.50
2019-01-12T01:16:06.172Z,47.70
2019-01-12T01:18:40.343Z,49.90
2019-01-12T01:21:14.500Z,47.80
2019-01-12T01:23:48.673Z,46.90
2019-01-12T01:26:22.828Z,46.20
2019-01-12T01:28:56.988Z,46.20
2019-01-12T01:31:31.150Z,45.80
2019-01-12T01:34:05.307Z,48.00
2019-01-12T01:36:40.546Z,48.40
2019-01-12T01:39:14.717Z,48.20
2019-01-12T01:41:49.852Z,46.60
2019-01-12T01:44:24.007Z,47.10
2019-01-12T01:46:58.173Z,50.50
2019-01-12T01:49:32.329Z,51.30
2019-01-12T01:52:06.494Z,49.10
2019-01-12T01:54:40.649Z,48.00
2019-01-12T01:57:14.812Z,47.50
2019-01-12T01:59:48.977Z,48.70
2019-01-12T02:02:23.137Z,48.30
2019-01-12T02:04:57.291Z,49.60
2019-01-12T02:07:31.456Z,50.60
2019-01-12T02:10:08.941Z,51.10
2019-01-12T02:12:43.107Z,51.40
2019-01-12T02:15:18.315Z,51.90
2019-01-12T02:17:52.484Z,51.70
2019-01-12T02:20:26.646Z,51.30
2019-01-12T02:23:00.819Z,50.90
2019-01-12T02:25:34.956Z,51.60
2019-01-12T02:28:09.112Z,52.70
2019-01-12T02:30:43.276Z,52.20
2019-01-12T02:33:17.429Z,51.10
2019-01-12T02:35:51.593Z,53.30
2019-01-12T02:38:25.749Z,53.20
2019-01-12T02:40:59.908Z,53.20
2019-01-12T02:43:34.060Z,50.80
2019-01-12T02:46:08.220Z,51.50
2019-01-12T02:48:42.352Z,50.00
2019-01-12T02:51:16.521Z,51.60
2019-01-12T02:53:50.660Z,52.70
2019-01-12T02:56:24.898Z,52.60
2019-01-12T02:58:59.056Z,53.50
2019-01-12T03:01:33.217Z,52.40
2019-01-12T03:04:07.440Z,52.30
2019-01-12T03:06:41.600Z,52.30
2019-01-12T03:09:15.772Z,52.70
2019-01-12T03:11:49.934Z,53.10
2019-01-12T03:14:24.091Z,54.70
2019-01-12T03:16:58.254Z,52.10
2019-01-12T03:19:32.413Z,53.20
2019-01-12T03:22:06.576Z,54.10
2019-01-12T03:24:40.739Z,55.10
2019-01-12T03:27:14.998Z,54.60
2019-01-12T03:29:49.192Z,57.70
2019-01-12T03:32:23.358Z,54.90
2019-01-12T03:34:57.518Z,55.00
2019-01-12T03:37:31.677Z,53.20
2019-01-12T03:40:12.073Z,54.50
2019-01-12T03:42:46.229Z,54.60
2019-01-12T03:45:21.566Z,55.80
2019-01-12T03:47:55.731Z,57.00
2019-01-12T03:50:29.884Z,55.20
2019-01-12T03:53:04.017Z,56.30
2019-01-12T03:55:38.284Z,55.40
2019-01-12T03:58:12.500Z,56.00
2019-01-12T04:00:46.663Z,54.10
2019-01-12T04:03:20.813Z,54.00
2019-01-12T04:05:54.973Z,53.80
2019-01-12T04:08:29.103Z,54.70
2019-01-12T04:11:03.273Z,52.80
2019-01-12T04:13:37.408Z,53.60
2019-01-12T04:16:11.564Z,54.40
2019-01-12T04:18:45.696Z,53.70
2019-01-12T04:21:19.865Z,55.40
2019-01-12T04:23:53.996Z,55.50
2019-01-12T04:26:28.157Z,55.10
2019-01-12T04:29:02.315Z,56.40
2019-01-12T04:31:37.471Z,58.00
2019-01-12T04:34:11.689Z,58.60
2019-01-12T04:36:45.847Z,57.80
2019-01-12T04:39:20.001Z,58.30
2019-01-12T04:41:54.231Z,59.30
2019-01-12T04:44:28.360Z,58.60
2019-01-12T04:47:02.527Z,57.90
2019-01-12T04:49:36.688Z,58.90
2019-01-12T04:52:10.841Z,58.40
2019-01-12T04:54:45.007Z,58.10
2019-01-12T04:57:19.155Z,59.20
2019-01-12T04:59:53.315Z,58.30
2019-01-12T05:02:27.916Z,59.20
2019-01-12T05:05:02.308Z,59.70
2019-01-12T05:07:36.446Z,59.70
2019-01-12T05:10:12.114Z,57.40
2019-01-12T05:12:46.241Z,58.20
2019-01-12T05:15:20.417Z,58.70
2019-01-12T05:17:54.558Z,59.00
2019-01-12T05:20:28.782Z,58.80
2019-01-12T05:23:02.940Z,58.80
2019-01-12T05:25:37.083Z,59.10
2019-01-12T05:28:11.244Z,59.90
2019-01-12T05:30:45.406Z,59.90
2019-01-12T05:33:19.647Z,60.20
2019-01-12T05:35:53.812Z,61.90
2019-01-12T05:38:27.972Z,61.80
2019-01-12T05:41:02.131Z,61.00
2019-01-12T05:43:36.295Z,59.30
2019-01-12T05:46:10.435Z,61.30
2019-01-12T05:48:44.614Z,59.90
2019-01-12T05:51:18.744Z,59.90
2019-01-12T05:53:52.928Z,59.20
2019-01-12T05:56:27.135Z,62.10
2019-01-12T05:59:01.301Z,60.70
2019-01-12T06:01:35.463Z,59.90
2019-01-12T06:04:09.637Z,63.70
2019-01-12T06:06:43.799Z,61.90
2019-01-12T06:09:17.968Z,62.10
2019-01-12T06:11:52.148Z,61.00
2019-01-12T06:14:26.342Z,61.30
2019-01-12T06:17:00.551Z,62.00
2019-01-12T06:19:34.716Z,61.30
2019-01-12T06:22:08.942Z,60.00
2019-01-12T06:24:43.112Z,60.00
2019-01-12T06:27:17.276Z,62.20
2019-01-12T06:29:51.444Z,61.00
2019-01-12T06:32:25.613Z,59.60
2019-01-12T06:34:59.777Z,61.10
2019-01-12T06:37:33.943Z,59.90
2019-01-12T06:40:10.951Z,59.60
2019-01-12T06:42:45.147Z,60.40
2019-01-12T06:45:19.309Z,60.10
2019-01-12T06:47:53.471Z,59.20
2019-01-12T06:50:27.628Z,59.00
2019-01-12T06:53:01.795Z,59.60
2019-01-12T06:55:36.017Z,60.00
2019-01-12T06:58:10.200Z,60.90
2019-01-12T07:00:44.366Z,61.70
2019-01-12T07:03:18.520Z,62.10
2019-01-12T07:05:52.683Z,61.70
2019-01-12T07:08:26.847Z,62.60
2019-01-12T07:11:01.011Z,62.00
2019-01-12T07:13:35.177Z,63.10
2019-01-12T07:16:09.344Z,62.00
2019-01-12T07:18:43.483Z,63.10
2019-01-12T07:21:17.652Z,63.70
2019-01-12T07:23:51.820Z,63.30
2019-01-12T07:26:25.988Z,66.60
2019-01-12T07:29:00.228Z,66.60
2019-01-12T07:31:34.363Z,64.00
2019-01-12T07:34:08.531Z,66.00
2019-01-12T07:36:42.671Z,65.90
2019-01-12T07:39:16.835Z,64.90
2019-01-12T07:41:50.976Z,61.30
2019-01-12T07:44:25.161Z,59.50
2019-01-12T07:46:59.362Z,59.20
2019-01-12T07:49:33.523Z,58.30
2019-01-12T07:52:08.229Z,58.50
2019-01-12T07:54:42.391Z,57.70
2019-01-12T07:57:16.535Z,56.60
2019-01-12T07:59:50.685Z,57.10
2019-01-12T08:02:24.819Z,56.90
2019-01-12T08:04:59.054Z,57.40
2019-01-12T08:07:33.212Z,58.80
2019-01-12T08:10:10.628Z,57.20
2019-01-12T08:12:44.792Z,56.70
2019-01-12T08:15:18.965Z,56.30
2019-01-12T08:17:53.199Z,56.00
2019-01-12T08:20:27.355Z,55.00
2019-01-12T08:23:01.516Z,54.50
2019-01-12T08:25:35.676Z,53.90
2019-01-12T08:28:09.824Z,53.90
2019-01-12T08:30:43.979Z,53.30
2019-01-12T08:33:18.139Z,53.10
2019-01-12T08:35:52.278Z,52.00
2019-01-12T08:38:26.438Z,52.50
2019-01-12T08:41:00.667Z,52.40
2019-01-12T08:43:34.832Z,52.10
2019-01-12T08:46:08.986Z,51.80
2019-01-12T08:48:43.146Z,50.40
2019-01-12T08:51:17.581Z,50.30
2019-01-12T08:53:51.736Z,49.40
2019-01-12T08:56:25.888Z,48.80
2019-01-12T08:59:00.048Z,48.30
2019-01-12T09:01:34.203Z,47.60
2019-01-12T09:04:08.336Z,46.80
2019-01-12T09:06:43.564Z,46.60
2019-01-12T09:09:18.700Z,45.20
2019-01-12T09:11:52.868Z,45.50
2019-01-12T09:14:27.031Z,46.40
2019-01-12T09:17:01.185Z,45.10
2019-01-12T09:19:35.344Z,45.50
2019-01-12T09:22:09.509Z,45.90
2019-01-12T09:24:43.682Z,44.70
2019-01-12T09:27:17.837Z,44.10
2019-01-12T09:29:51.987Z,43.40
2019-01-12T09:32:26.156Z,43.20
2019-01-12T09:35:00.316Z,43.40
2019-01-12T09:37:34.476Z,43.10
2019-01-12T09:40:11.944Z,42.50
2019-01-12T09:42:46.099Z,42.40
2019-01-12T09:45:20.263Z,42.40
2019-01-12T09:47:54.417Z,42.50
2019-01-12T09:50:28.591Z,43.10
2019-01-12T09:53:02.725Z,43.40
2019-01-12T09:55:36.875Z,43.60
2019-01-12T09:58:11.031Z,43.70
2019-01-12T10:00:45.199Z,43.50
2019-01-12T10:03:19.363Z,42.80
2019-01-12T10:05:53.523Z,43.80
2019-01-12T10:08:27.686Z,44.30
2019-01-12T10:11:01.844Z,44.40
2019-01-12T10:13:35.995Z,44.10
2019-01-12T10:16:10.147Z,43.70
2019-01-12T10:18:44.312Z,43.10
2019-01-12T10:21:18.551Z,42.50
2019-01-12T10:23:52.715Z,42.90
2019-01-12T10:26:26.867Z,42.60
2019-01-12T10:29:01.035Z,42.70
2019-01-12T10:31:35.199Z,42.60
2019-01-12T10:34:09.356Z,42.10
2019-01-12T10:36:43.519Z,41.80
2019-01-12T10:39:17.958Z,41.70
2019-01-12T10:41:52.321Z,42.20
2019-01-12T10:44:26.492Z,41.80
2019-01-12T10:47:00.652Z,41.60
2019-01-12T10:49:34.819Z,42.50
2019-01-12T10:52:08.952Z,42.40
2019-01-12T10:54:43.105Z,43.00
2019-01-12T10:57:17.263Z,42.40
2019-01-12T10:59:51.433Z,42.20
2019-01-12T11:02:25.596Z,42.40
2019-01-12T11:04:59.756Z,41.80
2019-01-12T11:07:33.920Z,41.40
2019-01-12T11:10:10.807Z,40.90
2019-01-12T11:12:44.981Z,40.20
2019-01-12T11:15:20.775Z,40.20
2019-01-12T11:17:54.936Z,39.30
2019-01-12T11:20:30.071Z,38.70
2019-01-12T11:23:04.234Z,37.90
2019-01-12T11:25:42.763Z,37.80
2019-01-12T11:28:14.273Z,37.70
2019-01-12T11:30:48.445Z,37.70
2019-01-12T11:33:22.604Z,38.20
2019-01-12T11:35:56.770Z,38.20
2019-01-12T11:38:30.968Z,38.50
2019-01-12T11:41:05.147Z,37.80
2019-01-12T11:43:39.304Z,37.50
2019-01-12T11:46:13.482Z,38.10
2019-01-12T11:48:47.643Z,38.70
2019-01-12T11:51:21.805Z,39.10
2019-01-12T11:53:55.969Z,38.70
2019-01-12T11:56:30.143Z,38.90
2019-01-12T11:59:04.313Z,38.60
2019-01-12T12:01:38.474Z,40.20
2019-01-12T12:04:12.621Z,40.70
2019-01-12T12:06:46.786Z,40.90
2019-01-12T12:09:20.939Z,41.20
2019-01-12T12:11:55.103Z,41.10
2019-01-12T12:14:29.298Z,40.80
2019-01-12T12:17:03.451Z,40.40
2019-01-12T12:19:37.624Z,40.00
2019-01-12T12:22:11.787Z,39.60
2019-01-12T12:24:45.952Z,39.60
2019-01-12T12:27:26.011Z,39.40
2019-01-12T12:29:55.964Z,38.90
2019-01-12T12:32:30.120Z,39.10
2019-01-12T12:35:06.095Z,39.90
2019-01-12T12:37:40.259Z,40.20
2019-01-12T12:40:17.108Z,40.50
2019-01-12T12:42:51.273Z,40.90
2019-01-12T12:45:28.176Z,41.40
2019-01-12T12:48:02.336Z,42.40
2019-01-12T12:50:37.568Z,42.80
2019-01-12T12:53:11.753Z,42.30
2019-01-12T12:55:45.916Z,42.70
2019-01-12T12:58:20.087Z,43.30
2019-01-12T13:00:54.219Z,43.40
2019-01-12T13:03:29.444Z,42.20
2019-01-12T13:06:03.603Z,43.10
2019-01-12T13:08:37.758Z,43.00
2019-01-12T13:11:11.908Z,42.30
2019-01-12T13:13:46.908Z,42.40
2019-01-12T13:16:21.059Z,42.80
2019-01-12T13:18:55.227Z,42.60
2019-01-12T13:21:29.355Z,42.10
2019-01-12T13:24:03.515Z,42.80
2019-01-12T13:26:37.654Z,42.40
2019-01-12T13:29:11.816Z,42.50
2019-01-12T13:31:45.977Z,42.80
2019-01-12T13:34:21.219Z,43.50
2019-01-12T13:36:55.384Z,43.70
2019-01-12T13:39:32.189Z,43.80
2019-01-12T13:42:05.391Z,44.20
2019-01-12T13:44:39.563Z,43.90
2019-01-12T13:47:20.599Z,43.30
2019-01-12T13:49:49.601Z,43.30
2019-01-12T13:52:23.756Z,43.50
2019-01-12T13:54:57.917Z,42.50
2019-01-12T13:57:32.149Z,42.60
2019-01-12T14:00:12.596Z,42.60
2019-01-12T14:02:46.830Z,42.70
2019-01-12T14:05:20.990Z,43.70
2019-01-12T14:07:56.596Z,43.80
2019-01-12T14:10:31.062Z,43.70
2019-01-12T14:13:05.228Z,43.70
2019-01-12T14:15:39.387Z,44.60
2019-01-12T14:18:13.545Z,45.40
2019-01-12T14:20:47.676Z,45.70
2019-01-12T14:23:21.846Z,45.60
2019-01-12T14:25:55.974Z,45.80
2019-01-12T14:28:30.138Z,46.90
2019-01-12T14:31:04.264Z,45.90
2019-01-12T14:33:38.428Z,44.90
2019-01-12T14:36:12.588Z,44.30
2019-01-12T14:38:47.684Z,44.60
2019-01-12T14:41:24.769Z,48.10
2019-01-12T14:43:59.033Z,45.00
2019-01-12T14:46:33.223Z,43.20
2019-01-12T14:49:07.388Z,42.20
2019-01-12T14:51:41.545Z,44.10
2019-01-12T14:54:15.705Z,44.60
2019-01-12T14:56:49.872Z,44.80
2019-01-12T14:59:24.051Z,44.90
2019-01-12T15:01:58.262Z,46.40
2019-01-12T15:04:32.429Z,46.10
2019-01-12T15:07:06.657Z,47.50
2019-01-12T15:09:40.812Z,47.30
2019-01-12T15:12:14.966Z,47.60
2019-01-12T15:14:49.115Z,47.00
2019-01-12T15:17:23.282Z,48.60
2019-01-12T16:15:48.027Z,61.10
